Ana Sayfa
METAR-TAF:

METAR-TAF

Havaalanları :

Gage, Oklahoma, Amerika Birleşik Devletleri

Enlem: 36-17-48N, Boylam: 099-46-08W, yükseklik: 677 m

Güncel hava durumu gözlemi

Rapor saat 11:53 UTC de 47 dakika önce yapıldı.
Rüzgar güneydan 8 kt
Sıcaklık 24°C
Nem 65%
Basınç 1011 hPa
Görüş mesafesi: 16.1 km
Açık gökyüzü

METAR: KGAG 191153Z AUTO 17008KT 10SM CLR 24/17 A2986 RMK AO2 SLP076 T02390167 10289 20239 53007

Saat: 07:40 (12:40 UTC)


TAF: eksik

4.000'den fazla havaalanı için hava durumu gözlemleri ve tahminleri (METAR ve TAF raporları).

Kullanılabilir istasyonlar harita üzerinde sarı ve kırmızı noktalarla gösterilir.

İstasyonun adını görmek için fareyi noktanın üzerinde gezdirin.

Sonrasında hava gözlem ve tahminlerini görmek için tıklayın.

Haritayı değiştirmek için: yaklaştırmak için siyah artı işaretli yeşil düğmeye ve uzaklaştırmak için de eksi işaretli düğmeye hızla tıklayın; bitişik haritalar için yeşil okları kullanın.


METAR-TAF: